Time;durP1;ratioP1;P1;durP2;ratioP2;P2;SDS_P1;SDS_P2;PMS_P1;PMS_P2;Temp;Humidity;BMP_temperature;BMP_pressure;BME280_temperature;BME280_humidity;BME280_pressure;Samples;Min_cycle;Max_cycle;Signal;HPM_P1;HPM_P2
2023/09/01 00:01:32;;;;;;;;;;;;;;;24.83;68.08;97104.46;620109;228;67201;-65
2023/09/01 00:04:02;;;;;;;;;;;;;;;24.83;67.92;97109.02;606272;228;47157;-65
2023/09/01 00:06:30;;;;;;;;;;;;;;;24.83;68.24;97107.14;620074;228;62482;-65
2023/09/01 00:08:58;;;;;;;;;;;;;;;24.83;68.01;97106.33;619866;229;67200;-65
2023/09/01 00:11:26;;;;;;;;;;;;;;;24.83;68.46;97109.84;619906;229;67013;-65
2023/09/01 00:13:55;;;;;;;;;;;;;;;24.82;68.22;97108.22;619937;229;64953;-65
2023/09/01 00:16:23;;;;;;;;;;;;;;;24.81;68.05;97107.42;613899;229;67071;-65
2023/09/01 00:18:51;;;;;;;;;;;;;;;24.81;68.46;97112.02;620344;228;67055;-65
2023/09/01 00:21:19;;;;;;;;;;;;;;;24.81;68.14;97103.95;620448;228;63097;-65
2023/09/01 00:23:47;;;;;;;;;;;;;;;24.81;68.23;97109.33;620637;228;66808;-65
2023/09/01 00:26:15;;;;;;;;;;;;;;;24.81;68.34;97109.33;619908;228;67074;-65
2023/09/01 00:28:43;;;;;;;;;;;;;;;24.79;68.08;97120.35;613864;229;65794;-65
2023/09/01 00:31:11;;;;;;;;;;;;;;;24.81;68.25;97112.02;621498;227;67177;-65
2023/09/01 00:33:39;;;;;;;;;;;;;;;24.81;68.06;97106.63;621345;227;64503;-65
2023/09/01 00:36:06;;;;;;;;;;;;;;;24.80;67.99;97115.80;620481;228;62772;-65
2023/09/01 00:38:34;;;;;;;;;;;;;;;24.79;68.31;97117.66;619965;229;65690;-65
2023/09/01 00:41:01;;;;;;;;;;;;;;;24.80;68.25;97121.17;619899;229;67070;-65
2023/09/01 00:43:29;;;;;;;;;;;;;;;24.79;68.24;97119.56;619901;229;65169;-65
2023/09/01 00:45:56;;;;;;;;;;;;;;;24.79;68.14;97125.73;620453;228;67189;-65
2023/09/01 00:48:24;;;;;;;;;;;;;;;24.78;68.00;97126.83;611748;227;64732;-65
2023/09/01 00:50:52;;;;;;;;;;;;;;;24.79;68.01;97130.31;621609;227;65224;-65
2023/09/01 00:53:19;;;;;;;;;;;;;;;24.79;67.87;97125.73;614494;228;67202;-65
2023/09/01 00:55:47;;;;;;;;;;;;;;;24.78;68.12;97129.52;620538;228;64690;-65
2023/09/01 00:58:15;;;;;;;;;;;;;;;24.78;67.97;97126.04;620395;228;64968;-65
2023/09/01 01:00:43;;;;;;;;;;;;;;;24.79;67.71;97133.00;620672;228;67360;-65
2023/09/01 01:03:11;;;;;;;;;;;;;;;24.79;67.88;97135.69;620474;228;66881;-65
2023/09/01 01:05:40;;;;;;;;;;;;;;;24.78;67.99;97147.54;620544;228;62639;-65
2023/09/01 01:08:15;;;;;;;;;;;;;;;24.77;67.87;97144.06;620283;228;67235;-66
2023/09/01 01:10:44;;;;;;;;;;;;;;;24.77;67.87;97143.23;621656;228;64314;-66
2023/09/01 01:13:13;;;;;;;;;;;;;;;24.78;67.60;97136.79;621947;227;65012;-66
2023/09/01 01:15:42;;;;;;;;;;;;;;;24.77;67.53;97132.48;619909;229;66895;-66
2023/09/01 01:18:11;;;;;;;;;;;;;;;24.77;67.58;97132.48;620023;228;67206;-66
2023/09/01 01:20:40;;;;;;;;;;;;;;;24.77;67.60;97143.23;620752;228;64629;-66
2023/09/01 01:23:17;;;;;;;;;;;;;;;24.76;67.60;97145.13;620514;228;66974;-68
2023/09/01 01:25:48;;;;;;;;;;;;;;;24.76;67.48;97145.13;620089;228;66816;-68
2023/09/01 01:28:16;;;;;;;;;;;;;;;24.76;67.46;97147.81;619961;228;65027;-67
2023/09/01 01:30:46;;;;;;;;;;;;;;;24.75;67.35;97146.23;621981;227;64439;-66
2023/09/01 01:33:23;;;;;;;;;;;;;;;24.76;67.25;97144.34;620218;227;65012;-66
2023/09/01 01:36:09;;;;;;;;;;;;;;;24.75;67.17;97138.17;619895;229;62456;-66
2023/09/01 01:38:38;;;;;;;;;;;;;;;24.75;67.26;97140.06;614758;229;64312;-66
2023/09/01 01:41:07;;;;;;;;;;;;;;;24.74;67.10;97141.14;620527;228;64084;-66
2023/09/01 01:43:36;;;;;;;;;;;;;;;24.74;67.19;97139.24;621719;227;64921;-66
2023/09/01 01:46:05;;;;;;;;;;;;;;;24.73;67.11;97140.34;621567;228;65072;-66
2023/09/01 01:48:37;;;;;;;;;;;;;;;24.74;67.02;97141.93;620860;228;67306;-66
2023/09/01 01:51:08;;;;;;;;;;;;;;;24.74;66.91;97146.52;621518;227;63056;-66
2023/09/01 01:53:35;;;;;;;;;;;;;;;24.73;66.96;97143.03;620252;228;64810;-66
2023/09/01 01:56:03;;;;;;;;;;;;;;;24.73;66.97;97139.55;620298;228;67197;-66
2023/09/01 01:58:31;;;;;;;;;;;;;;;24.72;66.95;97130.70;620179;228;63065;-66
2023/09/01 02:00:59;;;;;;;;;;;;;;;24.73;66.99;97134.17;622185;227;67339;-66
2023/09/01 02:03:26;;;;;;;;;;;;;;;24.73;66.86;97136.86;620600;228;67344;-66
2023/09/01 02:05:54;;;;;;;;;;;;;;;24.72;66.71;97144.13;620527;228;62731;-66
2023/09/01 02:08:21;;;;;;;;;;;;;;;24.72;66.66;97144.13;619932;228;67352;-66
2023/09/01 02:10:49;;;;;;;;;;;;;;;24.73;66.75;97144.92;620535;228;67154;-66
2023/09/01 02:13:17;;;;;;;;;;;;;;;24.72;66.43;97146.03;620469;228;62734;-66
2023/09/01 02:15:53;;;;;;;;;;;;;;;24.71;66.67;97145.20;620583;228;67335;-66
2023/09/01 02:18:21;;;;;;;;;;;;;;;24.70;66.60;97140.14;619859;228;65144;-66
2023/09/01 02:20:49;;;;;;;;;;;;;;;24.71;66.68;97147.09;620670;228;65065;-66
2023/09/01 02:23:17;;;;;;;;;;;;;;;24.70;66.35;97145.52;620472;228;67028;-66
2023/09/01 02:25:45;;;;;;;;;;;;;;;24.68;66.46;97145.00;620047;228;64456;-66
2023/09/01 02:28:13;;;;;;;;;;;;;;;24.71;66.57;97147.09;619891;229;65099;-66
2023/09/01 02:30:40;;;;;;;;;;;;;;;24.69;67.08;97147.41;620053;228;67234;-66
2023/09/01 02:33:08;;;;;;;;;;;;;;;24.68;66.80;97142.31;622053;227;65500;-66
2023/09/01 02:35:44;;;;;;;;;;;;;;;24.69;66.75;97141.20;620101;228;65211;-66
2023/09/01 02:38:12;;;;;;;;;;;;;;;24.69;66.75;97141.20;620196;228;65626;-67
2023/09/01 02:40:40;;;;;;;;;;;;;;;24.68;66.71;97142.31;619874;229;65593;-67
2023/09/01 02:43:07;;;;;;;;;;;;;;;24.68;66.47;97142.31;620512;228;62700;-66
2023/09/01 02:45:35;;;;;;;;;;;;;;;24.68;66.36;97137.73;620163;228;64750;-65
2023/09/01 02:48:02;;;;;;;;;;;;;;;24.68;66.55;97136.94;619867;229;65274;-65
2023/09/01 02:50:30;;;;;;;;;;;;;;;24.67;66.35;97138.83;619912;229;66100;-65
2023/09/01 02:52:58;;;;;;;;;;;;;;;24.67;65.97;97143.41;620694;228;65719;-65
2023/09/01 02:55:25;;;;;;;;;;;;;;;24.67;65.72;97138.04;620478;228;67256;-65
2023/09/01 02:57:53;;;;;;;;;;;;;;;24.66;65.46;97137.22;621164;228;64991;-65
2023/09/01 03:00:21;;;;;;;;;;;;;;;24.66;65.57;97142.59;621223;227;67268;-65
2023/09/01 03:02:50;;;;;;;;;;;;;;;24.67;65.92;97148.79;620338;228;64925;-65
2023/09/01 03:05:17;;;;;;;;;;;;;;;24.67;64.75;97146.09;620170;228;64988;-65
2023/09/01 03:07:45;;;;;;;;;;;;;;;24.66;64.03;97153.34;619990;229;64829;-65
2023/09/01 03:10:13;;;;;;;;;;;;;;;24.67;63.95;97143.41;619887;229;67077;-65
2023/09/01 03:12:41;;;;;;;;;;;;;;;24.66;64.08;97147.97;620100;228;65005;-65
2023/09/01 03:15:09;;;;;;;;;;;;;;;24.67;64.76;97138.83;621628;228;65790;-66
2023/09/01 03:17:36;;;;;;;;;;;;;;;24.66;64.70;97144.48;620108;228;65071;-67
2023/09/01 03:20:05;;;;;;;;;;;;;;;24.68;64.33;97145.00;619911;229;65082;-66
2023/09/01 03:22:32;;;;;;;;;;;;;;;24.67;64.35;97135.35;619905;229;67402;-66
2023/09/01 03:25:01;;;;;;;;;;;;;;;24.66;64.80;97145.28;619860;229;64489;-65
2023/09/01 03:27:30;;;;;;;;;;;;;;;24.67;64.88;97143.41;619905;229;65010;-65
2023/09/01 03:29:57;;;;;;;;;;;;;;;24.65;65.27;97146.38;619908;229;67755;-65
2023/09/01 03:32:27;;;;;;;;;;;;;;;24.65;65.22;97146.38;619879;228;43754;-65
2023/09/01 03:34:55;;;;;;;;;;;;;;;24.65;65.25;97149.06;620525;228;65075;-65
2023/09/01 03:37:23;;;;;;;;;;;;;;;24.65;65.14;97151.75;620558;228;65046;-67
2023/09/01 03:39:50;;;;;;;;;;;;;;;24.65;65.46;97150.96;620334;228;66788;-67
2023/09/01 03:42:18;;;;;;;;;;;;;;;24.65;64.96;97145.59;619862;229;64625;-67
2023/09/01 03:44:46;;;;;;;;;;;;;;;24.64;64.36;97149.38;620317;228;64510;-67
2023/09/01 03:47:14;;;;;;;;;;;;;;;24.64;64.92;97154.75;620194;228;67633;-66
2023/09/01 03:49:42;;;;;;;;;;;;;;;24.64;65.16;97144.00;619889;229;63023;-67
2023/09/01 03:52:09;;;;;;;;;;;;;;;24.64;64.83;97149.38;619911;228;67359;-66
2023/09/01 03:54:37;;;;;;;;;;;;;;;24.64;64.85;97144.00;620394;228;64782;-67
2023/09/01 03:57:05;;;;;;;;;;;;;;;24.64;64.74;97149.38;620197;228;65339;-67
2023/09/01 03:59:32;;;;;;;;;;;;;;;24.62;64.76;97146.97;620147;228;64972;-67
2023/09/01 04:02:00;;;;;;;;;;;;;;;24.63;64.79;97158.50;620443;228;64515;-66
2023/09/01 04:04:27;;;;;;;;;;;;;;;24.63;65.01;97158.50;620170;228;65188;-67
2023/09/01 04:06:55;;;;;;;;;;;;;;;24.62;64.75;97156.92;620374;228;66940;-67
2023/09/01 04:09:22;;;;;;;;;;;;;;;24.61;64.63;97166.88;614121;229;68253;-67
2023/09/01 04:11:50;;;;;;;;;;;;;;;24.61;64.49;97157.98;620403;228;65793;-67
2023/09/01 04:14:18;;;;;;;;;;;;;;;24.61;65.02;97163.36;619876;228;64971;-66
2023/09/01 04:16:46;;;;;;;;;;;;;;;24.62;64.61;97159.61;619915;229;67408;-66
2023/09/01 04:19:13;;;;;;;;;;;;;;;24.61;64.65;97161.50;619833;229;66274;-67
2023/09/01 04:21:41;;;;;;;;;;;;;;;24.61;64.56;97166.05;619888;228;67277;-67
2023/09/01 04:24:10;;;;;;;;;;;;;;;24.61;64.18;97166.05;620530;228;64515;-67
2023/09/01 04:26:37;;;;;;;;;;;;;;;24.60;64.71;97170.63;620029;228;64997;-67
2023/09/01 04:29:06;;;;;;;;;;;;;;;24.60;64.62;97167.95;620385;228;64748;-66
2023/09/01 04:31:33;;;;;;;;;;;;;;;24.59;64.74;97169.84;619882;229;66976;-67
2023/09/01 04:34:03;;;;;;;;;;;;;;;24.59;64.89;97169.05;620688;228;50154;-66
2023/09/01 04:36:32;;;;;;;;;;;;;;;24.61;64.87;97179.48;619916;229;67931;-66
2023/09/01 04:39:03;;;;;;;;;;;;;;;24.59;65.11;97179.80;619888;229;64786;-66
2023/09/01 04:41:29;;;;;;;;;;;;;;;24.59;64.88;97179.80;620442;228;63868;-67
2023/09/01 04:43:56;;;;;;;;;;;;;;;24.57;64.18;97180.07;621313;228;65143;-67
2023/09/01 04:46:24;;;;;;;;;;;;;;;24.60;65.21;97184.06;619856;228;65112;-67
2023/09/01 04:48:51;;;;;;;;;;;;;;;24.59;65.03;97191.34;620750;228;65070;-67
2023/09/01 04:51:19;;;;;;;;;;;;;;;24.57;64.51;97185.45;619967;228;64972;-66
2023/09/01 04:53:47;;;;;;;;;;;;;;;24.58;64.87;97189.75;620324;228;64598;-67
2023/09/01 04:56:14;;;;;;;;;;;;;;;24.57;64.81;97198.88;620625;228;62900;-67
2023/09/01 04:58:42;;;;;;;;;;;;;;;24.57;64.74;97190.02;619862;229;67255;-67
2023/09/01 05:01:09;;;;;;;;;;;;;;;24.57;64.13;97193.50;620693;228;67294;-67
2023/09/01 05:03:37;;;;;;;;;;;;;;;24.57;62.76;97196.19;619912;229;65018;-67
2023/09/01 05:06:06;;;;;;;;;;;;;;;24.58;62.94;97199.67;620169;228;67294;-66
2023/09/01 05:08:34;;;;;;;;;;;;;;;24.58;62.93;97192.44;618563;228;65149;-67
2023/09/01 05:11:02;;;;;;;;;;;;;;;24.59;63.97;97194.02;617562;228;65687;-67
2023/09/01 05:13:29;;;;;;;;;;;;;;;24.58;63.78;97197.81;620551;228;64747;-67
2023/09/01 05:15:57;;;;;;;;;;;;;;;24.59;64.22;97202.08;620117;228;66909;-67
2023/09/01 05:18:25;;;;;;;;;;;;;;;24.58;63.98;97192.44;619901;229;63013;-67
2023/09/01 05:20:53;;;;;;;;;;;;;;;24.58;64.34;97194.30;620079;228;67485;-67
2023/09/01 05:23:21;;;;;;;;;;;;;;;24.58;64.06;97188.92;620510;228;64598;-67
2023/09/01 05:25:52;;;;;;;;;;;;;;;24.58;64.29;97196.98;620024;228;65747;-67
2023/09/01 05:28:20;;;;;;;;;;;;;;;24.58;64.33;97203.19;619938;229;67374;-67
2023/09/01 05:30:47;;;;;;;;;;;;;;;24.57;64.43;97190.81;618212;227;66778;-67
2023/09/01 05:33:15;;;;;;;;;;;;;;;24.56;64.36;97202.66;617310;229;62580;-67
2023/09/01 05:35:42;;;;;;;;;;;;;;;24.57;64.57;97203.45;616680;229;67040;-67
2023/09/01 05:38:10;;;;;;;;;;;;;;;24.56;64.68;97204.56;618719;229;66770;-67
2023/09/01 05:40:38;;;;;;;;;;;;;;;24.56;64.83;97202.66;617149;229;65659;-67
2023/09/01 05:43:05;;;;;;;;;;;;;;;24.56;64.43;97207.24;619373;229;68471;-67
2023/09/01 05:45:33;;;;;;;;;;;;;;;24.56;64.63;97209.94;618324;229;65708;-67
2023/09/01 05:48:01;;;;;;;;;;;;;;;24.55;64.53;97206.45;618152;226;63020;-67
2023/09/01 05:50:29;;;;;;;;;;;;;;;24.55;64.51;97206.45;617995;229;67666;-67
2023/09/01 05:52:56;;;;;;;;;;;;;;;24.55;64.53;97206.45;618221;229;67281;-67
2023/09/01 05:55:25;;;;;;;;;;;;;;;24.56;65.15;97210.73;616114;229;65220;-67
2023/09/01 05:57:53;;;;;;;;;;;;;;;24.54;65.01;97215.58;617707;229;67241;-66
2023/09/01 06:00:21;;;;;;;;;;;;;;;24.56;64.85;97220.68;618955;229;67011;-67
2023/09/01 06:02:48;;;;;;;;;;;;;;;24.53;65.01;97216.68;618150;229;62693;-67
2023/09/01 06:05:16;;;;;;;;;;;;;;;24.53;64.62;97224.74;618671;224;67009;-67
2023/09/01 06:07:43;;;;;;;;;;;;;;;24.52;64.16;97212.37;627017;226;64444;-67
2023/09/01 06:10:11;;;;;;;;;;;;;;;24.53;65.05;97218.58;626138;226;62902;-66
2023/09/01 06:12:38;;;;;;;;;;;;;;;24.51;65.09;97226.91;626251;226;67012;-67
2023/09/01 06:15:06;;;;;;;;;;;;;;;24.51;64.88;97236.86;625493;226;65160;-67
2023/09/01 06:17:34;;;;;;;;;;;;;;;24.51;65.39;97231.48;627265;226;65124;-68
2023/09/01 06:20:01;;;;;;;;;;;;;;;24.49;65.15;97234.45;626908;226;64518;-66
2023/09/01 06:22:29;;;;;;;;;;;;;;;24.48;64.28;97232.07;624330;226;64831;-67
2023/09/01 06:24:56;;;;;;;;;;;;;;;24.50;63.09;97237.93;625571;226;65253;-65
2023/09/01 06:27:24;;;;;;;;;;;;;;;24.49;63.62;97229.08;624175;225;67356;-66
2023/09/01 06:29:52;;;;;;;;;;;;;;;24.50;63.69;97230.70;602745;228;70541;-66
2023/09/01 06:32:19;;;;;;;;;;;;;;;24.51;64.09;97237.66;615523;224;64982;-68
2023/09/01 06:34:47;;;;;;;;;;;;;;;24.51;63.85;97232.28;615584;226;66953;-67
2023/09/01 06:37:17;;;;;;;;;;;;;;;24.52;64.23;97241.14;619702;225;46778;-65
2023/09/01 06:39:45;;;;;;;;;;;;;;;24.52;64.35;97246.51;621174;226;62967;-65
2023/09/01 06:42:12;;;;;;;;;;;;;;;24.52;64.95;97244.62;628145;225;65009;-65
2023/09/01 06:44:40;;;;;;;;;;;;;;;24.52;64.39;97236.56;622147;225;64897;-66
2023/09/01 06:47:07;;;;;;;;;;;;;;;24.52;64.67;97241.93;620075;228;65233;-66
2023/09/01 06:49:35;;;;;;;;;;;;;;;24.52;64.17;97241.93;617704;226;67262;-65
2023/09/01 06:52:03;;;;;;;;;;;;;;;24.52;64.49;97249.20;625834;226;66874;-66
2023/09/01 06:54:30;;;;;;;;;;;;;;;24.52;64.83;97247.30;622787;226;65064;-65
2023/09/01 06:56:58;;;;;;;;;;;;;;;24.53;64.90;97251.61;622201;227;67122;-66
2023/09/01 06:59:25;;;;;;;;;;;;;;;24.52;65.40;97252.67;625482;223;66900;-66
2023/09/01 07:01:53;;;;;;;;;;;;;;;24.53;65.28;97256.19;626992;226;65092;-65
2023/09/01 07:17:04;;;;;;;;;;;;;;;24.65;64.76;97255.76;619753;227;35594;-63
2023/09/01 07:19:31;;;;;;;;;;;;;;;24.52;64.87;97260.73;606021;232;62804;-63
2023/09/01 07:21:59;;;;;;;;;;;;;;;24.53;64.12;97262.36;611737;232;62219;-62
2023/09/01 07:24:26;;;;;;;;;;;;;;;24.51;60.18;97261.84;611798;232;61962;-62
2023/09/01 07:26:54;;;;;;;;;;;;;;;24.55;64.13;97270.94;606570;232;62803;-62
2023/09/01 07:29:21;;;;;;;;;;;;;;;24.56;65.60;97266.36;598650;235;64221;-63
2023/09/01 07:31:49;;;;;;;;;;;;;;;24.55;65.15;97265.56;595892;236;64053;-62
2023/09/01 07:34:16;;;;;;;;;;;;;;;24.54;64.29;97268.52;596779;238;62948;-62
2023/09/01 07:36:44;;;;;;;;;;;;;;;24.55;64.62;97275.48;593186;236;62273;-63
2023/09/01 07:39:11;;;;;;;;;;;;;;;24.55;64.67;97270.11;592919;239;62181;-64
2023/09/01 07:41:39;;;;;;;;;;;;;;;24.56;64.87;97277.90;593166;236;63054;-63
2023/09/01 07:44:06;;;;;;;;;;;;;;;24.59;60.92;97288.06;595140;236;62444;-68
2023/09/01 07:46:34;;;;;;;;;;;;;;;24.61;62.66;97278.91;595298;236;64516;-68
2023/09/01 07:49:02;;;;;;;;;;;;;;;24.59;64.97;97282.69;596106;236;65423;-66
2023/09/01 07:51:30;;;;;;;;;;;;;;;24.60;65.28;97280.80;595599;236;64715;-66
2023/09/01 07:53:59;;;;;;;;;;;;;;;24.57;65.16;97284.86;595256;236;62069;-66
2023/09/01 07:56:26;;;;;;;;;;;;;;;24.59;65.33;97273.84;595730;236;65876;-67
2023/09/01 07:58:54;;;;;;;;;;;;;;;24.58;65.46;97281.10;596607;236;62474;-66
2023/09/01 08:01:22;;;;;;;;;;;;;;;24.58;65.35;97281.10;596015;236;64229;-67
2023/09/01 08:03:49;;;;;;;;;;;;;;;24.58;65.51;97270.36;597516;236;65048;-67
2023/09/01 08:06:17;;;;;;;;;;;;;;;24.58;66.36;97273.05;596123;236;64565;-66
2023/09/01 08:08:44;;;;;;;;;;;;;;;24.59;66.68;97277.31;594606;237;64356;-66
2023/09/01 08:11:12;;;;;;;;;;;;;;;24.59;67.09;97274.63;594030;237;64986;-67
2023/09/01 08:13:39;;;;;;;;;;;;;;;24.58;67.71;97266.84;595163;237;62238;-66
2023/09/01 08:16:07;;;;;;;;;;;;;;;24.59;68.37;97273.84;596640;236;62007;-67
2023/09/01 08:18:34;;;;;;;;;;;;;;;24.58;68.58;97269.53;599107;236;65338;-66
2023/09/01 08:21:05;;;;;;;;;;;;;;;24.57;68.64;97268.73;600611;236;64552;-66
2023/09/01 08:23:33;;;;;;;;;;;;;;;24.56;68.78;97272.52;598538;236;62362;-63
2023/09/01 08:26:02;;;;;;;;;;;;;;;24.55;67.21;97276.31;597971;236;62772;-68
2023/09/01 08:28:35;;;;;;;;;;;;;;;24.56;66.75;97274.41;598200;236;64722;-67
2023/09/01 08:31:03;;;;;;;;;;;;;;;24.56;66.83;97272.52;595680;236;64323;-67
2023/09/01 08:33:30;;;;;;;;;;;;;;;24.57;66.55;97268.73;597211;236;65094;-65
2023/09/01 08:35:59;;;;;;;;;;;;;;;24.58;66.50;97269.53;596218;236;64494;-65
2023/09/01 08:38:27;;;;;;;;;;;;;;;24.58;66.62;97264.98;596239;236;64574;-65
2023/09/01 08:41:01;;;;;;;;;;;;;;;24.57;66.40;97259.88;596299;236;65031;-63
2023/09/01 08:43:30;;;;;;;;;;;;;;;24.55;60.01;97254.81;598486;236;62273;-65
2023/09/01 08:45:58;;;;;;;;;;;;;;;24.57;65.28;97252.61;597688;236;64524;-64
2023/09/01 08:48:25;;;;;;;;;;;;;;;24.57;65.63;97257.98;597485;236;65027;-64
2023/09/01 08:50:53;;;;;;;;;;;;;;;24.58;65.35;97246.17;598352;236;64695;-64
2023/09/01 08:53:21;;;;;;;;;;;;;;;24.57;64.86;97254.52;597672;236;64407;-64
2023/09/01 08:55:49;;;;;;;;;;;;;;;24.56;64.73;97251.03;596527;236;65054;-64
2023/09/01 08:58:21;;;;;;;;;;;;;;;24.57;64.65;97249.93;597687;236;64778;-64
2023/09/01 09:00:46;;;;;;;;;;;;;;;24.57;64.44;97247.24;597355;236;64505;-64
2023/09/01 09:03:14;;;;;;;;;;;;;;;24.57;64.48;97251.82;597959;236;63817;-64
2023/09/01 09:05:42;;;;;;;;;;;;;;;24.56;64.22;97247.55;597755;236;64541;-64
2023/09/01 09:08:09;;;;;;;;;;;;;;;24.56;64.42;97251.03;598681;236;64727;-64
2023/09/01 09:10:41;;;;;;;;;;;;;;;24.56;63.83;97250.23;598265;236;65965;-64
2023/09/01 09:13:25;;;;;;;;;;;;;;;24.56;63.90;97244.86;599634;236;62405;-64
2023/09/01 09:16:11;;;;;;;;;;;;;;;24.56;63.70;97252.92;600082;236;62010;-67
2023/09/01 09:18:42;;;;;;;;;;;;;;;24.56;64.02;97244.86;601525;236;62941;-68
2023/09/01 09:21:27;;;;;;;;;;;;;;;24.55;63.80;97252.13;601461;236;64501;-68
2023/09/01 09:23:56;;;;;;;;;;;;;;;24.56;63.84;97244.86;601431;236;64517;-67
2023/09/01 09:26:30;;;;;;;;;;;;;;;24.55;63.87;97249.44;601344;236;64932;-67
2023/09/01 09:29:08;;;;;;;;;;;;;;;24.55;64.07;97248.62;598424;236;64602;-64
2023/09/01 09:31:44;;;;;;;;;;;;;;;24.54;64.25;97236.28;599320;236;64534;-65
2023/09/01 09:34:18;;;;;;;;;;;;;;;24.56;64.61;97244.86;601428;236;65313;-64
2023/09/01 09:36:46;;;;;;;;;;;;;;;24.55;64.44;97244.06;601184;236;65545;-65
2023/09/01 09:39:24;;;;;;;;;;;;;;;24.55;64.49;97238.70;601140;236;64429;-64
2023/09/01 09:41:52;;;;;;;;;;;;;;;24.55;64.60;97244.06;601447;236;62738;-66
2023/09/01 09:44:38;;;;;;;;;;;;;;;24.56;64.43;97234.11;600054;236;64704;-66
2023/09/01 09:47:12;;;;;;;;;;;;;;;24.55;64.52;97230.63;599317;236;62434;-65
2023/09/01 09:49:33;;;;;;;;;;;;;;;24.57;64.83;97235.70;598928;236;65930;-65
2023/09/01 09:52:01;;;;;;;;;;;;;;;24.56;64.86;97240.28;599625;236;64722;-64
2023/09/01 09:54:30;;;;;;;;;;;;;;;24.56;64.71;97240.28;599718;236;64165;-67
2023/09/01 09:56:58;;;;;;;;;;;;;;;24.57;64.85;97231.12;599693;236;63003;-68
2023/09/01 09:59:27;;;;;;;;;;;;;;;24.56;64.45;97229.53;599636;236;62263;-67
2023/09/01 10:01:55;;;;;;;;;;;;;;;24.56;64.40;97237.59;593623;236;61960;-67
2023/09/01 10:04:23;;;;;;;;;;;;;;;24.57;64.23;97235.70;599719;236;62937;-67
2023/09/01 10:06:51;;;;;;;;;;;;;;;24.58;65.28;97234.60;599512;236;62484;-64
2023/09/01 10:09:18;;;;;;;;;;;;;;;24.57;65.58;97230.33;599703;236;62963;-66
2023/09/01 10:11:46;;;;;;;;;;;;;;;24.57;65.46;97230.33;599660;236;62751;-65
2023/09/01 10:14:14;;;;;;;;;;;;;;;24.56;65.56;97234.91;599629;236;64470;-65
2023/09/01 10:16:43;;;;;;;;;;;;;;;24.57;65.50;97225.75;598630;236;64174;-65
2023/09/01 10:19:12;;;;;;;;;;;;;;;24.58;65.65;97226.54;598399;236;62863;-65
2023/09/01 10:21:41;;;;;;;;;;;;;;;24.57;65.22;97228.44;597687;236;64721;-67
2023/09/01 10:24:16;;;;;;;;;;;;;;;24.56;64.87;97226.84;598767;236;64163;-66
2023/09/01 10:26:44;;;;;;;;;;;;;;;24.56;65.17;97232.22;598725;236;65538;-66
2023/09/01 10:29:13;;;;;;;;;;;;;;;24.56;65.10;97229.53;594951;236;62248;-68
2023/09/01 10:31:40;;;;;;;;;;;;;;;24.56;65.42;97232.22;593955;238;62109;-67
2023/09/01 10:34:15;;;;;;;;;;;;;;;24.57;65.26;97233.81;593766;238;65304;-66
2023/09/01 10:36:43;;;;;;;;;;;;;;;24.57;65.51;97235.70;597753;236;62309;-67
2023/09/01 10:39:24;;;;;;;;;;;;;;;24.57;65.26;97238.39;600124;236;64516;-66
2023/09/01 10:41:55;;;;;;;;;;;;;;;24.56;64.71;97229.53;600150;236;62667;-67
2023/09/01 10:44:26;;;;;;;;;;;;;;;24.57;64.82;97228.44;600650;236;65891;-65
2023/09/01 10:46:52;;;;;;;;;;;;;;;24.56;64.84;97223.37;601182;236;62064;-66
2023/09/01 10:49:20;;;;;;;;;;;;;;;24.57;64.83;97224.95;601323;236;62739;-66
2023/09/01 10:51:47;;;;;;;;;;;;;;;24.57;64.59;97219.58;599602;236;64843;-67
2023/09/01 10:54:19;;;;;;;;;;;;;;;24.57;64.52;97223.06;598175;236;62086;-66
2023/09/01 10:56:56;;;;;;;;;;;;;;;24.56;60.31;97226.84;598029;236;62955;-66
2023/09/01 10:59:36;;;;;;;;;;;;;;;24.62;62.92;97221.41;600238;236;64459;-66
2023/09/01 11:02:20;;;;;;;;;;;;;;;24.64;59.75;97219.23;595016;238;64227;-66
2023/09/01 11:04:48;;;;;;;;;;;;;;;24.62;59.28;97222.20;594947;236;63223;-66
2023/09/01 11:07:16;;;;;;;;;;;;;;;24.64;64.50;97225.41;599486;236;62167;-65
2023/09/01 11:09:51;;;;;;;;;;;;;;;24.62;64.87;97221.41;601435;236;62282;-66
2023/09/01 11:12:18;;;;;;;;;;;;;;;24.61;65.31;97225.98;595079;236;65115;-65
2023/09/01 11:14:59;;;;;;;;;;;;;;;24.59;66.15;97220.89;597542;236;62497;-66
2023/09/01 11:17:34;;;;;;;;;;;;;;;24.59;66.12;97220.09;595846;237;64291;-66
2023/09/01 11:20:03;;;;;;;;;;;;;;;24.58;65.96;97213.93;597794;237;65128;-65
2023/09/01 11:22:30;;;;;;;;;;;;;;;24.57;66.07;97204.25;598747;237;64617;-65
2023/09/01 11:24:58;;;;;;;;;;;;;;;24.58;66.04;97210.42;598749;237;64135;-66
2023/09/01 11:27:25;;;;;;;;;;;;;;;24.57;65.72;97204.25;595656;237;64985;-65
2023/09/01 11:29:54;;;;;;;;;;;;;;;24.58;65.46;97210.42;593074;237;65455;-65
2023/09/01 11:32:28;;;;;;;;;;;;;;;24.56;60.49;97207.24;593905;237;65844;-65
2023/09/01 11:34:55;;;;;;;;;;;;;;;24.61;63.43;97204.49;592224;239;64952;-65
2023/09/01 11:37:36;;;;;;;;;;;;;;;24.61;63.83;97192.92;596178;237;64187;-65
2023/09/01 11:40:07;;;;;;;;;;;;;;;24.62;65.92;97194.54;592256;239;65296;-64
2023/09/01 11:42:33;;;;;;;;;;;;;;;24.61;65.62;97193.75;597359;237;65095;-65
2023/09/01 11:45:02;;;;;;;;;;;;;;;24.61;65.80;97188.37;596865;237;65699;-65
2023/09/01 11:47:30;;;;;;;;;;;;;;;24.61;65.48;97184.86;593295;237;65050;-65
2023/09/01 11:49:57;;;;;;;;;;;;;;;24.61;65.79;97184.86;592348;239;62800;-65
2023/09/01 11:52:25;;;;;;;;;;;;;;;24.61;65.57;97188.37;592590;237;63073;-65
2023/09/01 11:54:52;;;;;;;;;;;;;;;24.60;65.45;97181.37;594235;237;62687;-66
2023/09/01 11:57:21;;;;;;;;;;;;;;;24.59;65.63;97185.96;598029;237;65146;-65
2023/09/01 11:59:49;;;;;;;;;;;;;;;24.61;65.55;97182.17;597056;237;65498;-64
2023/09/01 12:02:20;;;;;;;;;;;;;;;24.62;60.60;97178.42;596528;237;65560;-63
2023/09/01 12:04:49;;;;;;;;;;;;;;;24.66;64.34;97180.21;597098;237;63055;-65
2023/09/01 12:07:29;;;;;;;;;;;;;;;24.67;65.55;97176.45;591529;237;65592;-65
2023/09/01 12:09:57;;;;;;;;;;;;;;;24.67;65.16;97179.14;596704;237;64994;-64
2023/09/01 12:12:26;;;;;;;;;;;;;;;24.69;65.94;97173.45;597387;237;65187;-66
2023/09/01 12:14:54;;;;;;;;;;;;;;;24.68;65.62;97182.63;596140;236;63115;-66
2023/09/01 12:17:22;;;;;;;;;;;;;;;24.67;65.41;97176.45;597233;236;62950;-66
2023/09/01 12:19:50;;;;;;;;;;;;;;;24.65;65.61;97167.88;595333;236;64720;-66
2023/09/01 12:22:18;;;;;;;;;;;;;;;24.65;65.90;97170.56;594063;238;62712;-66
2023/09/01 12:24:53;;;;;;;;;;;;;;;24.64;65.76;97168.19;594873;238;63105;-66
2023/09/01 12:27:21;;;;;;;;;;;;;;;24.64;65.41;97170.88;594881;238;62990;-65
2023/09/01 12:29:49;;;;;;;;;;;;;;;24.64;65.68;97177.04;594905;238;66106;-66
2023/09/01 12:32:17;;;;;;;;;;;;;;;24.64;61.47;97177.04;594972;238;65194;-65
2023/09/01 12:34:45;;;;;;;;;;;;;;;24.66;61.29;97169.46;594898;238;65221;-65
2023/09/01 12:37:13;;;;;;;;;;;;;;;24.67;64.01;97173.77;594927;238;65515;-65
2023/09/01 12:39:40;;;;;;;;;;;;;;;24.68;65.70;97172.66;595002;238;64883;-67
2023/09/01 12:42:09;;;;;;;;;;;;;;;24.67;66.00;97172.97;594881;238;63122;-66
2023/09/01 12:44:37;;;;;;;;;;;;;;;24.66;65.57;97171.36;594971;238;65597;-66
2023/09/01 12:47:05;;;;;;;;;;;;;;;24.66;60.05;97172.15;594938;238;63634;-69
2023/09/01 12:49:32;;;;;;;;;;;;;;;24.69;61.87;97173.45;594879;238;64918;-70
2023/09/01 12:52:00;;;;;;;;;;;;;;;24.73;65.34;97174.48;594922;238;63080;-66
2023/09/01 12:54:27;;;;;;;;;;;;;;;24.74;64.59;97170.70;595002;238;62965;-66
2023/09/01 12:56:55;;;;;;;;;;;;;;;24.75;63.77;97165.05;594804;238;62856;-67
2023/09/01 12:59:22;;;;;;;;;;;;;;;24.76;63.46;97157.77;594900;238;63231;-64
2023/09/01 13:01:50;;;;;;;;;;;;;;;24.78;63.64;97156.39;599745;236;63187;-64
2023/09/01 13:04:17;;;;;;;;;;;;;;;24.79;64.45;97155.30;601543;236;62801;-64
2023/09/01 13:06:45;;;;;;;;;;;;;;;24.81;64.57;97157.70;601516;236;63110;-64
2023/09/01 13:09:12;;;;;;;;;;;;;;;24.81;64.09;97153.13;601559;236;64922;-64